sensor_id;sensor_type;location;lat;lon;timestamp;P1;durP1;ratioP1;P2;durP2;ratioP2
7051;SDS011;3567;52.444;13.556;2023-08-31T00:01:08;3.05;;;2.92;;
7051;SDS011;3567;52.444;13.556;2023-08-31T00:03:34;4.65;;;3.05;;
7051;SDS011;3567;52.444;13.556;2023-08-31T00:06:03;3.00;;;2.80;;
7051;SDS011;3567;52.444;13.556;2023-08-31T00:08:29;3.13;;;2.92;;
7051;SDS011;3567;52.444;13.556;2023-08-31T00:10:58;2.55;;;2.38;;
7051;SDS011;3567;52.444;13.556;2023-08-31T00:13:27;2.70;;;2.50;;
7051;SDS011;3567;52.444;13.556;2023-08-31T00:15:54;2.70;;;2.40;;
7051;SDS011;3567;52.444;13.556;2023-08-31T00:18:21;4.22;;;2.55;;
7051;SDS011;3567;52.444;13.556;2023-08-31T00:20:47;3.60;;;3.38;;
7051;SDS011;3567;52.444;13.556;2023-08-31T00:23:12;3.35;;;3.05;;
7051;SDS011;3567;52.444;13.556;2023-08-31T00:25:38;3.60;;;2.92;;
7051;SDS011;3567;52.444;13.556;2023-08-31T00:28:03;3.47;;;2.78;;
7051;SDS011;3567;52.444;13.556;2023-08-31T00:30:29;3.75;;;3.03;;
7051;SDS011;3567;52.444;13.556;2023-08-31T00:32:55;2.85;;;2.65;;
7051;SDS011;3567;52.444;13.556;2023-08-31T00:35:25;2.90;;;2.80;;
7051;SDS011;3567;52.444;13.556;2023-08-31T00:37:52;2.85;;;2.63;;
7051;SDS011;3567;52.444;13.556;2023-08-31T00:40:17;2.75;;;2.65;;
7051;SDS011;3567;52.444;13.556;2023-08-31T00:42:43;3.13;;;3.03;;
7051;SDS011;3567;52.444;13.556;2023-08-31T00:45:08;3.63;;;2.92;;
7051;SDS011;3567;52.444;13.556;2023-08-31T00:47:35;2.88;;;2.70;;
7051;SDS011;3567;52.444;13.556;2023-08-31T00:50:00;3.65;;;3.35;;
7051;SDS011;3567;52.444;13.556;2023-08-31T00:52:26;3.42;;;3.13;;
7051;SDS011;3567;52.444;13.556;2023-08-31T00:54:52;2.97;;;2.42;;
7051;SDS011;3567;52.444;13.556;2023-08-31T00:57:17;3.03;;;2.92;;
7051;SDS011;3567;52.444;13.556;2023-08-31T00:59:43;3.25;;;3.05;;
7051;SDS011;3567;52.444;13.556;2023-08-31T01:05:21;3.47;;;2.92;;
7051;SDS011;3567;52.444;13.556;2023-08-31T01:13:21;2.85;;;2.65;;
7051;SDS011;3567;52.444;13.556;2023-08-31T01:15:53;3.40;;;3.05;;
7051;SDS011;3567;52.444;13.556;2023-08-31T01:18:21;3.38;;;2.97;;
7051;SDS011;3567;52.444;13.556;2023-08-31T01:23:50;4.28;;;3.83;;
7051;SDS011;3567;52.444;13.556;2023-08-31T01:26:18;3.50;;;3.30;;
7051;SDS011;3567;52.444;13.556;2023-08-31T01:28:44;3.35;;;3.15;;
7051;SDS011;3567;52.444;13.556;2023-08-31T01:31:10;3.78;;;3.33;;
7051;SDS011;3567;52.444;13.556;2023-08-31T01:33:36;3.45;;;2.97;;
7051;SDS011;3567;52.444;13.556;2023-08-31T01:36:01;3.47;;;3.17;;
7051;SDS011;3567;52.444;13.556;2023-08-31T01:38:33;2.85;;;2.75;;
7051;SDS011;3567;52.444;13.556;2023-08-31T01:41:04;3.00;;;2.90;;
7051;SDS011;3567;52.444;13.556;2023-08-31T01:43:32;2.75;;;2.60;;
7051;SDS011;3567;52.444;13.556;2023-08-31T01:45:58;3.08;;;2.90;;
7051;SDS011;3567;52.444;13.556;2023-08-31T01:48:24;4.70;;;2.80;;
7051;SDS011;3567;52.444;13.556;2023-08-31T01:50:50;2.55;;;2.35;;
7051;SDS011;3567;52.444;13.556;2023-08-31T01:53:15;2.95;;;2.75;;
7051;SDS011;3567;52.444;13.556;2023-08-31T01:55:40;2.88;;;2.75;;
7051;SDS011;3567;52.444;13.556;2023-08-31T01:58:06;2.17;;;2.08;;
7051;SDS011;3567;52.444;13.556;2023-08-31T02:00:32;2.50;;;2.38;;
7051;SDS011;3567;52.444;13.556;2023-08-31T02:03:00;2.33;;;2.22;;
7051;SDS011;3567;52.444;13.556;2023-08-31T02:05:26;3.00;;;2.80;;
7051;SDS011;3567;52.444;13.556;2023-08-31T02:07:51;2.70;;;2.60;;
7051;SDS011;3567;52.444;13.556;2023-08-31T02:10:16;2.60;;;2.45;;
7051;SDS011;3567;52.444;13.556;2023-08-31T02:12:42;2.88;;;2.67;;
7051;SDS011;3567;52.444;13.556;2023-08-31T02:15:07;2.85;;;2.72;;
7051;SDS011;3567;52.444;13.556;2023-08-31T02:17:34;2.95;;;2.75;;
7051;SDS011;3567;52.444;13.556;2023-08-31T02:20:00;2.65;;;2.53;;
7051;SDS011;3567;52.444;13.556;2023-08-31T02:22:26;2.72;;;2.63;;
7051;SDS011;3567;52.444;13.556;2023-08-31T02:24:52;2.80;;;2.70;;
7051;SDS011;3567;52.444;13.556;2023-08-31T02:27:17;2.67;;;2.58;;
7051;SDS011;3567;52.444;13.556;2023-08-31T02:29:42;2.58;;;2.47;;
7051;SDS011;3567;52.444;13.556;2023-08-31T02:32:08;2.95;;;2.75;;
7051;SDS011;3567;52.444;13.556;2023-08-31T02:34:34;2.30;;;2.20;;
7051;SDS011;3567;52.444;13.556;2023-08-31T02:36:59;2.58;;;1.98;;
7051;SDS011;3567;52.444;13.556;2023-08-31T02:39:24;2.47;;;2.30;;
7051;SDS011;3567;52.444;13.556;2023-08-31T02:41:50;2.70;;;2.50;;
7051;SDS011;3567;52.444;13.556;2023-08-31T02:44:15;3.25;;;2.05;;
7051;SDS011;3567;52.444;13.556;2023-08-31T02:46:40;1.98;;;1.88;;
7051;SDS011;3567;52.444;13.556;2023-08-31T02:49:06;1.70;;;1.60;;
7051;SDS011;3567;52.444;13.556;2023-08-31T02:51:31;1.50;;;1.35;;
7051;SDS011;3567;52.444;13.556;2023-08-31T02:53:57;1.95;;;1.35;;
7051;SDS011;3567;52.444;13.556;2023-08-31T02:56:22;1.85;;;1.70;;
7051;SDS011;3567;52.444;13.556;2023-08-31T02:58:47;1.20;;;1.20;;
7051;SDS011;3567;52.444;13.556;2023-08-31T03:01:13;1.60;;;1.50;;
7051;SDS011;3567;52.444;13.556;2023-08-31T03:03:39;1.50;;;1.40;;
7051;SDS011;3567;52.444;13.556;2023-08-31T03:06:06;2.15;;;1.30;;
7051;SDS011;3567;52.444;13.556;2023-08-31T03:08:32;1.98;;;1.70;;
7051;SDS011;3567;52.444;13.556;2023-08-31T03:10:58;2.45;;;1.75;;
7051;SDS011;3567;52.444;13.556;2023-08-31T03:13:24;2.92;;;2.10;;
7051;SDS011;3567;52.444;13.556;2023-08-31T03:15:49;1.77;;;1.67;;
7051;SDS011;3567;52.444;13.556;2023-08-31T03:18:14;1.70;;;1.60;;
7051;SDS011;3567;52.444;13.556;2023-08-31T03:20:40;5.43;;;2.05;;
7051;SDS011;3567;52.444;13.556;2023-08-31T03:23:05;2.60;;;1.70;;
7051;SDS011;3567;52.444;13.556;2023-08-31T03:25:31;1.70;;;1.60;;
7051;SDS011;3567;52.444;13.556;2023-08-31T03:27:56;1.80;;;1.70;;
7051;SDS011;3567;52.444;13.556;2023-08-31T03:30:21;1.58;;;1.48;;
7051;SDS011;3567;52.444;13.556;2023-08-31T03:32:47;1.55;;;1.45;;
7051;SDS011;3567;52.444;13.556;2023-08-31T03:35:12;2.00;;;1.33;;
7051;SDS011;3567;52.444;13.556;2023-08-31T03:37:38;1.83;;;1.70;;
7051;SDS011;3567;52.444;13.556;2023-08-31T03:40:03;1.58;;;1.48;;
7051;SDS011;3567;52.444;13.556;2023-08-31T03:42:31;2.05;;;1.95;;
7051;SDS011;3567;52.444;13.556;2023-08-31T03:44:58;2.25;;;2.05;;
7051;SDS011;3567;52.444;13.556;2023-08-31T03:47:24;1.92;;;1.80;;
7051;SDS011;3567;52.444;13.556;2023-08-31T03:49:49;2.58;;;2.00;;
7051;SDS011;3567;52.444;13.556;2023-08-31T03:52:14;1.95;;;1.85;;
7051;SDS011;3567;52.444;13.556;2023-08-31T03:54:40;2.53;;;2.33;;
7051;SDS011;3567;52.444;13.556;2023-08-31T03:57:05;2.75;;;2.53;;
7051;SDS011;3567;52.444;13.556;2023-08-31T03:59:30;2.55;;;1.95;;
7051;SDS011;3567;52.444;13.556;2023-08-31T04:01:56;2.33;;;2.22;;
7051;SDS011;3567;52.444;13.556;2023-08-31T04:04:21;3.60;;;2.28;;
7051;SDS011;3567;52.444;13.556;2023-08-31T04:06:46;2.40;;;2.22;;
7051;SDS011;3567;52.444;13.556;2023-08-31T04:09:12;2.40;;;2.20;;
7051;SDS011;3567;52.444;13.556;2023-08-31T04:11:37;2.53;;;2.42;;
7051;SDS011;3567;52.444;13.556;2023-08-31T04:14:02;2.67;;;2.47;;
7051;SDS011;3567;52.444;13.556;2023-08-31T04:16:28;2.50;;;2.20;;
7051;SDS011;3567;52.444;13.556;2023-08-31T04:18:54;2.63;;;2.42;;
7051;SDS011;3567;52.444;13.556;2023-08-31T04:21:20;2.80;;;2.65;;
7051;SDS011;3567;52.444;13.556;2023-08-31T04:23:45;2.25;;;2.15;;
7051;SDS011;3567;52.444;13.556;2023-08-31T04:26:13;3.15;;;2.90;;
7051;SDS011;3567;52.444;13.556;2023-08-31T04:28:40;3.15;;;2.92;;
7051;SDS011;3567;52.444;13.556;2023-08-31T04:31:06;2.58;;;2.40;;
7051;SDS011;3567;52.444;13.556;2023-08-31T04:33:35;2.75;;;2.55;;
7051;SDS011;3567;52.444;13.556;2023-08-31T04:36:03;3.80;;;3.60;;
7051;SDS011;3567;52.444;13.556;2023-08-31T04:38:30;3.10;;;2.95;;
7051;SDS011;3567;52.444;13.556;2023-08-31T04:41:02;4.10;;;3.80;;
7051;SDS011;3567;52.444;13.556;2023-08-31T04:43:28;4.13;;;3.80;;
7051;SDS011;3567;52.444;13.556;2023-08-31T04:45:54;4.03;;;3.83;;
7051;SDS011;3567;52.444;13.556;2023-08-31T04:48:20;5.45;;;4.15;;
7051;SDS011;3567;52.444;13.556;2023-08-31T04:50:45;5.28;;;4.78;;
7051;SDS011;3567;52.444;13.556;2023-08-31T04:53:11;4.90;;;4.45;;
7051;SDS011;3567;52.444;13.556;2023-08-31T04:55:36;4.38;;;4.03;;
7051;SDS011;3567;52.444;13.556;2023-08-31T04:58:02;4.13;;;3.80;;
7051;SDS011;3567;52.444;13.556;2023-08-31T05:00:28;4.30;;;4.00;;
7051;SDS011;3567;52.444;13.556;2023-08-31T05:02:53;8.63;;;6.85;;
7051;SDS011;3567;52.444;13.556;2023-08-31T05:05:19;4.97;;;4.35;;
7051;SDS011;3567;52.444;13.556;2023-08-31T05:07:44;4.63;;;4.32;;
7051;SDS011;3567;52.444;13.556;2023-08-31T05:10:10;4.95;;;4.53;;
7051;SDS011;3567;52.444;13.556;2023-08-31T05:12:35;13.48;;;10.52;;
7051;SDS011;3567;52.444;13.556;2023-08-31T05:15:01;4.75;;;4.38;;
7051;SDS011;3567;52.444;13.556;2023-08-31T05:17:26;5.15;;;4.75;;
7051;SDS011;3567;52.444;13.556;2023-08-31T05:19:52;4.68;;;4.28;;
7051;SDS011;3567;52.444;13.556;2023-08-31T05:22:17;5.55;;;5.05;;
7051;SDS011;3567;52.444;13.556;2023-08-31T05:24:43;5.78;;;5.28;;
7051;SDS011;3567;52.444;13.556;2023-08-31T05:27:08;6.15;;;5.25;;
7051;SDS011;3567;52.444;13.556;2023-08-31T05:29:33;6.25;;;5.65;;
7051;SDS011;3567;52.444;13.556;2023-08-31T05:31:58;4.90;;;4.43;;
7051;SDS011;3567;52.444;13.556;2023-08-31T05:34:24;5.55;;;5.05;;
7051;SDS011;3567;52.444;13.556;2023-08-31T05:36:50;6.95;;;5.95;;
7051;SDS011;3567;52.444;13.556;2023-08-31T05:39:16;5.90;;;5.13;;
7051;SDS011;3567;52.444;13.556;2023-08-31T05:41:42;7.05;;;5.75;;
7051;SDS011;3567;52.444;13.556;2023-08-31T05:44:08;5.78;;;5.30;;
7051;SDS011;3567;52.444;13.556;2023-08-31T05:46:34;6.15;;;5.65;;
7051;SDS011;3567;52.444;13.556;2023-08-31T05:48:59;5.93;;;5.43;;
7051;SDS011;3567;52.444;13.556;2023-08-31T05:51:25;16.45;;;14.38;;
7051;SDS011;3567;52.444;13.556;2023-08-31T05:53:50;7.13;;;6.53;;
7051;SDS011;3567;52.444;13.556;2023-08-31T05:56:15;6.40;;;5.88;;
7051;SDS011;3567;52.444;13.556;2023-08-31T05:58:41;6.10;;;5.50;;
7051;SDS011;3567;52.444;13.556;2023-08-31T06:01:06;6.47;;;5.88;;
7051;SDS011;3567;52.444;13.556;2023-08-31T06:03:32;7.07;;;6.22;;
7051;SDS011;3567;52.444;13.556;2023-08-31T06:05:58;7.78;;;6.82;;
7051;SDS011;3567;52.444;13.556;2023-08-31T06:08:24;6.47;;;5.47;;
7051;SDS011;3567;52.444;13.556;2023-08-31T06:10:50;7.70;;;6.13;;
7051;SDS011;3567;52.444;13.556;2023-08-31T06:13:16;7.45;;;5.35;;
7051;SDS011;3567;52.444;13.556;2023-08-31T06:15:42;6.03;;;5.47;;
7051;SDS011;3567;52.444;13.556;2023-08-31T06:18:09;7.05;;;6.25;;
7051;SDS011;3567;52.444;13.556;2023-08-31T06:20:34;6.45;;;5.57;;
7051;SDS011;3567;52.444;13.556;2023-08-31T06:23:00;4.93;;;4.53;;
7051;SDS011;3567;52.444;13.556;2023-08-31T06:25:25;6.18;;;5.63;;
7051;SDS011;3567;52.444;13.556;2023-08-31T06:27:50;9.07;;;5.13;;
7051;SDS011;3567;52.444;13.556;2023-08-31T06:30:16;8.43;;;6.05;;
7051;SDS011;3567;52.444;13.556;2023-08-31T06:32:46;6.32;;;5.88;;
7051;SDS011;3567;52.444;13.556;2023-08-31T06:35:13;8.32;;;6.53;;
7051;SDS011;3567;52.444;13.556;2023-08-31T06:37:40;6.28;;;5.68;;
7051;SDS011;3567;52.444;13.556;2023-08-31T06:40:06;6.90;;;6.38;;
7051;SDS011;3567;52.444;13.556;2023-08-31T06:42:36;6.53;;;5.93;;
7051;SDS011;3567;52.444;13.556;2023-08-31T06:45:03;5.53;;;5.03;;
7051;SDS011;3567;52.444;13.556;2023-08-31T06:47:29;5.10;;;4.70;;
7051;SDS011;3567;52.444;13.556;2023-08-31T06:49:54;7.18;;;6.28;;
7051;SDS011;3567;52.444;13.556;2023-08-31T06:52:19;6.68;;;5.93;;
7051;SDS011;3567;52.444;13.556;2023-08-31T06:54:45;7.65;;;4.95;;
7051;SDS011;3567;52.444;13.556;2023-08-31T06:57:10;5.97;;;5.43;;
7051;SDS011;3567;52.444;13.556;2023-08-31T06:59:35;5.82;;;5.32;;
7051;SDS011;3567;52.444;13.556;2023-08-31T07:02:01;5.72;;;5.18;;
7051;SDS011;3567;52.444;13.556;2023-08-31T07:04:26;6.20;;;5.55;;
7051;SDS011;3567;52.444;13.556;2023-08-31T07:06:52;5.95;;;5.07;;
7051;SDS011;3567;52.444;13.556;2023-08-31T07:09:18;8.25;;;5.68;;
7051;SDS011;3567;52.444;13.556;2023-08-31T07:11:43;6.50;;;5.88;;
7051;SDS011;3567;52.444;13.556;2023-08-31T07:14:09;8.45;;;6.10;;
7051;SDS011;3567;52.444;13.556;2023-08-31T07:16:34;6.13;;;5.53;;
7051;SDS011;3567;52.444;13.556;2023-08-31T07:18:59;8.27;;;5.95;;
7051;SDS011;3567;52.444;13.556;2023-08-31T07:21:25;6.00;;;5.40;;
7051;SDS011;3567;52.444;13.556;2023-08-31T07:23:51;6.40;;;5.28;;
7051;SDS011;3567;52.444;13.556;2023-08-31T07:26:16;6.53;;;5.88;;
7051;SDS011;3567;52.444;13.556;2023-08-31T07:28:42;6.43;;;5.63;;
7051;SDS011;3567;52.444;13.556;2023-08-31T07:31:07;5.90;;;5.40;;
7051;SDS011;3567;52.444;13.556;2023-08-31T07:33:33;8.27;;;5.55;;
7051;SDS011;3567;52.444;13.556;2023-08-31T07:36:02;7.07;;;5.43;;
7051;SDS011;3567;52.444;13.556;2023-08-31T07:38:29;6.63;;;5.93;;
7051;SDS011;3567;52.444;13.556;2023-08-31T07:40:55;7.78;;;6.30;;
7051;SDS011;3567;52.444;13.556;2023-08-31T07:43:21;9.38;;;7.70;;
7051;SDS011;3567;52.444;13.556;2023-08-31T07:45:46;7.32;;;6.63;;
7051;SDS011;3567;52.444;13.556;2023-08-31T07:48:11;7.53;;;5.97;;
7051;SDS011;3567;52.444;13.556;2023-08-31T07:50:37;8.73;;;5.85;;
7051;SDS011;3567;52.444;13.556;2023-08-31T07:53:05;6.10;;;5.63;;
7051;SDS011;3567;52.444;13.556;2023-08-31T07:55:30;8.35;;;5.45;;
7051;SDS011;3567;52.444;13.556;2023-08-31T07:57:55;9.48;;;5.88;;
7051;SDS011;3567;52.444;13.556;2023-08-31T08:00:21;7.80;;;5.15;;
7051;SDS011;3567;52.444;13.556;2023-08-31T08:02:46;9.45;;;6.22;;
7051;SDS011;3567;52.444;13.556;2023-08-31T08:05:12;5.55;;;4.85;;
7051;SDS011;3567;52.444;13.556;2023-08-31T08:07:37;5.50;;;4.13;;
7051;SDS011;3567;52.444;13.556;2023-08-31T08:10:03;4.90;;;4.43;;
7051;SDS011;3567;52.444;13.556;2023-08-31T08:12:36;6.05;;;4.55;;
7051;SDS011;3567;52.444;13.556;2023-08-31T08:15:03;5.28;;;3.90;;
7051;SDS011;3567;52.444;13.556;2023-08-31T08:17:29;6.57;;;4.38;;
7051;SDS011;3567;52.444;13.556;2023-08-31T08:19:54;7.88;;;4.03;;
7051;SDS011;3567;52.444;13.556;2023-08-31T08:22:19;7.70;;;3.97;;
7051;SDS011;3567;52.444;13.556;2023-08-31T08:24:45;5.85;;;3.88;;
7051;SDS011;3567;52.444;13.556;2023-08-31T08:27:10;4.32;;;3.25;;
7051;SDS011;3567;52.444;13.556;2023-08-31T08:29:35;3.20;;;2.97;;
7051;SDS011;3567;52.444;13.556;2023-08-31T08:32:01;5.38;;;3.17;;
7051;SDS011;3567;52.444;13.556;2023-08-31T08:34:28;6.10;;;3.08;;
7051;SDS011;3567;52.444;13.556;2023-08-31T08:36:54;3.33;;;3.05;;
7051;SDS011;3567;52.444;13.556;2023-08-31T08:39:19;4.43;;;2.97;;
7051;SDS011;3567;52.444;13.556;2023-08-31T08:41:44;3.58;;;2.70;;
7051;SDS011;3567;52.444;13.556;2023-08-31T08:44:10;5.47;;;2.30;;
7051;SDS011;3567;52.444;13.556;2023-08-31T08:46:37;4.32;;;2.17;;
7051;SDS011;3567;52.444;13.556;2023-08-31T08:49:03;3.30;;;1.80;;
7051;SDS011;3567;52.444;13.556;2023-08-31T08:51:30;4.35;;;1.73;;
7051;SDS011;3567;52.444;13.556;2023-08-31T08:53:57;3.08;;;1.60;;
7051;SDS011;3567;52.444;13.556;2023-08-31T08:56:25;1.85;;;1.38;;
7051;SDS011;3567;52.444;13.556;2023-08-31T08:58:51;3.28;;;1.40;;
7051;SDS011;3567;52.444;13.556;2023-08-31T09:01:16;1.85;;;1.30;;
7051;SDS011;3567;52.444;13.556;2023-08-31T09:03:43;2.08;;;1.20;;
7051;SDS011;3567;52.444;13.556;2023-08-31T09:06:08;6.45;;;1.48;;
7051;SDS011;3567;52.444;13.556;2023-08-31T09:08:35;2.03;;;1.10;;
7051;SDS011;3567;52.444;13.556;2023-08-31T09:11:02;4.45;;;1.27;;
7051;SDS011;3567;52.444;13.556;2023-08-31T09:13:28;1.40;;;0.93;;
7051;SDS011;3567;52.444;13.556;2023-08-31T09:15:54;2.55;;;1.10;;
7051;SDS011;3567;52.444;13.556;2023-08-31T09:18:25;2.22;;;1.35;;
7051;SDS011;3567;52.444;13.556;2023-08-31T09:20:50;2.20;;;1.10;;
7051;SDS011;3567;52.444;13.556;2023-08-31T09:23:17;4.45;;;1.10;;
7051;SDS011;3567;52.444;13.556;2023-08-31T09:28:09;2.25;;;1.00;;
7051;SDS011;3567;52.444;13.556;2023-08-31T09:30:36;1.42;;;1.02;;
7051;SDS011;3567;52.444;13.556;2023-08-31T09:33:09;1.92;;;0.70;;
7051;SDS011;3567;52.444;13.556;2023-08-31T09:35:45;1.50;;;0.70;;
7051;SDS011;3567;52.444;13.556;2023-08-31T09:38:13;2.28;;;0.90;;
7051;SDS011;3567;52.444;13.556;2023-08-31T09:40:39;4.50;;;0.93;;
7051;SDS011;3567;52.444;13.556;2023-08-31T09:43:05;2.97;;;0.93;;
7051;SDS011;3567;52.444;13.556;2023-08-31T09:45:31;2.00;;;0.90;;
7051;SDS011;3567;52.444;13.556;2023-08-31T09:48:01;4.13;;;1.08;;
7051;SDS011;3567;52.444;13.556;2023-08-31T09:50:31;3.60;;;1.10;;
7051;SDS011;3567;52.444;13.556;2023-08-31T09:53:00;2.53;;;0.80;;
7051;SDS011;3567;52.444;13.556;2023-08-31T09:55:29;1.63;;;0.88;;
7051;SDS011;3567;52.444;13.556;2023-08-31T09:57:55;4.82;;;1.23;;
7051;SDS011;3567;52.444;13.556;2023-08-31T10:00:26;1.00;;;0.70;;
7051;SDS011;3567;52.444;13.556;2023-08-31T10:03:00;1.90;;;0.85;;
7051;SDS011;3567;52.444;13.556;2023-08-31T10:05:27;2.58;;;1.02;;
7051;SDS011;3567;52.444;13.556;2023-08-31T10:07:53;3.25;;;1.05;;
7051;SDS011;3567;52.444;13.556;2023-08-31T10:10:19;3.22;;;0.70;;
7051;SDS011;3567;52.444;13.556;2023-08-31T10:12:47;3.28;;;0.85;;
7051;SDS011;3567;52.444;13.556;2023-08-31T10:15:15;3.78;;;0.90;;
7051;SDS011;3567;52.444;13.556;2023-08-31T10:17:41;1.70;;;1.20;;
7051;SDS011;3567;52.444;13.556;2023-08-31T10:20:11;0.93;;;0.77;;
7051;SDS011;3567;52.444;13.556;2023-08-31T10:22:40;2.85;;;0.93;;
7051;SDS011;3567;52.444;13.556;2023-08-31T10:25:07;2.63;;;1.00;;
7051;SDS011;3567;52.444;13.556;2023-08-31T10:27:39;1.77;;;0.70;;
7051;SDS011;3567;52.444;13.556;2023-08-31T10:30:27;2.13;;;0.93;;
7051;SDS011;3567;52.444;13.556;2023-08-31T10:35:50;1.30;;;0.80;;
7051;SDS011;3567;52.444;13.556;2023-08-31T10:38:24;1.13;;;0.60;;
7051;SDS011;3567;52.444;13.556;2023-08-31T10:43:49;1.48;;;0.60;;
7051;SDS011;3567;52.444;13.556;2023-08-31T10:51:35;0.63;;;0.63;;
7051;SDS011;3567;52.444;13.556;2023-08-31T10:54:05;1.13;;;0.80;;
7051;SDS011;3567;52.444;13.556;2023-08-31T10:56:40;6.20;;;0.70;;
7051;SDS011;3567;52.444;13.556;2023-08-31T10:59:16;2.05;;;0.70;;
7051;SDS011;3567;52.444;13.556;2023-08-31T11:01:51;5.13;;;1.27;;
7051;SDS011;3567;52.444;13.556;2023-08-31T11:04:21;2.17;;;0.50;;
7051;SDS011;3567;52.444;13.556;2023-08-31T11:06:48;1.20;;;0.50;;
7051;SDS011;3567;52.444;13.556;2023-08-31T11:09:18;1.02;;;0.50;;
7051;SDS011;3567;52.444;13.556;2023-08-31T11:11:45;1.95;;;0.70;;
7051;SDS011;3567;52.444;13.556;2023-08-31T11:14:10;0.75;;;0.55;;
7051;SDS011;3567;52.444;13.556;2023-08-31T11:16:38;0.50;;;0.50;;
7051;SDS011;3567;52.444;13.556;2023-08-31T11:19:03;0.65;;;0.65;;
7051;SDS011;3567;52.444;13.556;2023-08-31T11:21:29;0.80;;;0.70;;
7051;SDS011;3567;52.444;13.556;2023-08-31T11:23:56;0.85;;;0.55;;
7051;SDS011;3567;52.444;13.556;2023-08-31T11:26:23;0.82;;;0.50;;
7051;SDS011;3567;52.444;13.556;2023-08-31T11:28:55;1.45;;;0.70;;
7051;SDS011;3567;52.444;13.556;2023-08-31T11:31:24;3.20;;;0.68;;
7051;SDS011;3567;52.444;13.556;2023-08-31T11:33:50;1.42;;;0.57;;
7051;SDS011;3567;52.444;13.556;2023-08-31T11:36:15;0.70;;;0.63;;
7051;SDS011;3567;52.444;13.556;2023-08-31T11:38:44;1.60;;;0.77;;
7051;SDS011;3567;52.444;13.556;2023-08-31T11:41:09;0.75;;;0.70;;
7051;SDS011;3567;52.444;13.556;2023-08-31T11:43:35;2.90;;;0.70;;
7051;SDS011;3567;52.444;13.556;2023-08-31T11:46:02;3.30;;;1.08;;
7051;SDS011;3567;52.444;13.556;2023-08-31T11:48:29;0.80;;;0.80;;
7051;SDS011;3567;52.444;13.556;2023-08-31T11:50:55;2.05;;;0.70;;
7051;SDS011;3567;52.444;13.556;2023-08-31T11:53:21;1.23;;;1.00;;
7051;SDS011;3567;52.444;13.556;2023-08-31T11:55:50;2.47;;;1.08;;
7051;SDS011;3567;52.444;13.556;2023-08-31T11:58:16;1.70;;;0.98;;
7051;SDS011;3567;52.444;13.556;2023-08-31T12:00:42;1.15;;;0.80;;
7051;SDS011;3567;52.444;13.556;2023-08-31T12:03:08;5.47;;;4.15;;
7051;SDS011;3567;52.444;13.556;2023-08-31T12:05:47;4.50;;;1.33;;
7051;SDS011;3567;52.444;13.556;2023-08-31T12:08:13;1.52;;;1.23;;
7051;SDS011;3567;52.444;13.556;2023-08-31T12:10:41;0.82;;;0.70;;
7051;SDS011;3567;52.444;13.556;2023-08-31T12:13:10;1.35;;;0.65;;
7051;SDS011;3567;52.444;13.556;2023-08-31T12:15:36;7.88;;;0.70;;
7051;SDS011;3567;52.444;13.556;2023-08-31T12:18:08;0.90;;;0.60;;
7051;SDS011;3567;52.444;13.556;2023-08-31T12:20:34;0.60;;;0.55;;
7051;SDS011;3567;52.444;13.556;2023-08-31T12:23:07;6.63;;;1.08;;
7051;SDS011;3567;52.444;13.556;2023-08-31T12:25:34;1.08;;;0.90;;
7051;SDS011;3567;52.444;13.556;2023-08-31T12:28:00;2.05;;;0.88;;
7051;SDS011;3567;52.444;13.556;2023-08-31T12:30:25;1.08;;;0.60;;
7051;SDS011;3567;52.444;13.556;2023-08-31T12:32:50;0.98;;;0.70;;
7051;SDS011;3567;52.444;13.556;2023-08-31T12:35:17;1.55;;;0.68;;
7051;SDS011;3567;52.444;13.556;2023-08-31T12:37:42;2.92;;;1.00;;
7051;SDS011;3567;52.444;13.556;2023-08-31T12:40:08;1.50;;;0.93;;
7051;SDS011;3567;52.444;13.556;2023-08-31T12:42:34;1.85;;;0.90;;
7051;SDS011;3567;52.444;13.556;2023-08-31T12:45:00;1.08;;;0.70;;
7051;SDS011;3567;52.444;13.556;2023-08-31T12:47:26;1.05;;;0.60;;
7051;SDS011;3567;52.444;13.556;2023-08-31T12:49:51;2.33;;;0.63;;
7051;SDS011;3567;52.444;13.556;2023-08-31T12:52:16;1.70;;;1.10;;
7051;SDS011;3567;52.444;13.556;2023-08-31T12:54:42;1.67;;;1.27;;
7051;SDS011;3567;52.444;13.556;2023-08-31T12:57:07;2.92;;;1.02;;
7051;SDS011;3567;52.444;13.556;2023-08-31T12:59:32;5.97;;;0.98;;
7051;SDS011;3567;52.444;13.556;2023-08-31T13:01:58;1.10;;;0.60;;
7051;SDS011;3567;52.444;13.556;2023-08-31T13:04:23;1.80;;;0.70;;
7051;SDS011;3567;52.444;13.556;2023-08-31T13:06:48;2.40;;;0.75;;
7051;SDS011;3567;52.444;13.556;2023-08-31T13:09:14;2.85;;;1.30;;
7051;SDS011;3567;52.444;13.556;2023-08-31T13:11:39;1.35;;;0.80;;
7051;SDS011;3567;52.444;13.556;2023-08-31T13:14:05;1.10;;;1.00;;
7051;SDS011;3567;52.444;13.556;2023-08-31T13:16:31;0.75;;;0.65;;
7051;SDS011;3567;52.444;13.556;2023-08-31T13:18:57;1.92;;;1.17;;
7051;SDS011;3567;52.444;13.556;2023-08-31T13:21:22;0.80;;;0.70;;
7051;SDS011;3567;52.444;13.556;2023-08-31T13:23:48;3.55;;;1.00;;
7051;SDS011;3567;52.444;13.556;2023-08-31T13:26:13;11.65;;;0.80;;
7051;SDS011;3567;52.444;13.556;2023-08-31T13:28:39;3.35;;;0.70;;
7051;SDS011;3567;52.444;13.556;2023-08-31T13:31:06;0.68;;;0.50;;
7051;SDS011;3567;52.444;13.556;2023-08-31T13:33:31;0.50;;;0.50;;
7051;SDS011;3567;52.444;13.556;2023-08-31T13:35:57;0.60;;;0.50;;
7051;SDS011;3567;52.444;13.556;2023-08-31T13:38:25;1.35;;;0.40;;
7051;SDS011;3567;52.444;13.556;2023-08-31T13:40:54;0.50;;;0.50;;
7051;SDS011;3567;52.444;13.556;2023-08-31T13:43:24;4.47;;;0.75;;
7051;SDS011;3567;52.444;13.556;2023-08-31T13:45:49;0.52;;;0.52;;
7051;SDS011;3567;52.444;13.556;2023-08-31T13:48:15;0.40;;;0.40;;
7051;SDS011;3567;52.444;13.556;2023-08-31T13:50:40;0.68;;;0.40;;
7051;SDS011;3567;52.444;13.556;2023-08-31T13:53:06;1.23;;;0.43;;
7051;SDS011;3567;52.444;13.556;2023-08-31T13:55:31;0.45;;;0.45;;
7051;SDS011;3567;52.444;13.556;2023-08-31T13:58:03;1.95;;;0.45;;
7051;SDS011;3567;52.444;13.556;2023-08-31T14:00:30;1.90;;;0.60;;
7051;SDS011;3567;52.444;13.556;2023-08-31T14:02:55;0.80;;;0.52;;
7051;SDS011;3567;52.444;13.556;2023-08-31T14:05:23;0.60;;;0.60;;
7051;SDS011;3567;52.444;13.556;2023-08-31T14:07:48;6.25;;;0.93;;
7051;SDS011;3567;52.444;13.556;2023-08-31T14:10:14;3.50;;;0.93;;
7051;SDS011;3567;52.444;13.556;2023-08-31T14:12:39;1.08;;;1.00;;
7051;SDS011;3567;52.444;13.556;2023-08-31T14:15:05;2.90;;;0.60;;
7051;SDS011;3567;52.444;13.556;2023-08-31T14:17:31;2.35;;;1.05;;
7051;SDS011;3567;52.444;13.556;2023-08-31T14:19:58;3.88;;;0.85;;
7051;SDS011;3567;52.444;13.556;2023-08-31T14:22:24;2.75;;;0.90;;
7051;SDS011;3567;52.444;13.556;2023-08-31T14:24:49;0.75;;;0.60;;
7051;SDS011;3567;52.444;13.556;2023-08-31T14:27:14;2.80;;;1.08;;
7051;SDS011;3567;52.444;13.556;2023-08-31T14:29:40;1.63;;;0.50;;
7051;SDS011;3567;52.444;13.556;2023-08-31T14:32:05;1.27;;;0.70;;
7051;SDS011;3567;52.444;13.556;2023-08-31T14:34:31;1.50;;;1.17;;
7051;SDS011;3567;52.444;13.556;2023-08-31T14:36:57;1.60;;;1.08;;
7051;SDS011;3567;52.444;13.556;2023-08-31T14:39:24;1.35;;;1.23;;
7051;SDS011;3567;52.444;13.556;2023-08-31T14:41:54;1.55;;;1.10;;
7051;SDS011;3567;52.444;13.556;2023-08-31T14:44:20;0.80;;;0.80;;
7051;SDS011;3567;52.444;13.556;2023-08-31T14:46:45;1.83;;;0.80;;
7051;SDS011;3567;52.444;13.556;2023-08-31T14:49:10;1.00;;;0.75;;
7051;SDS011;3567;52.444;13.556;2023-08-31T14:51:36;1.85;;;0.55;;
7051;SDS011;3567;52.444;13.556;2023-08-31T14:54:01;0.82;;;0.70;;
7051;SDS011;3567;52.444;13.556;2023-08-31T14:56:27;0.57;;;0.43;;
7051;SDS011;3567;52.444;13.556;2023-08-31T14:58:52;0.63;;;0.50;;
7051;SDS011;3567;52.444;13.556;2023-08-31T15:01:18;0.93;;;0.57;;
7051;SDS011;3567;52.444;13.556;2023-08-31T15:03:44;0.57;;;0.47;;
7051;SDS011;3567;52.444;13.556;2023-08-31T15:06:09;0.40;;;0.40;;
7051;SDS011;3567;52.444;13.556;2023-08-31T15:08:38;1.02;;;0.40;;
7051;SDS011;3567;52.444;13.556;2023-08-31T15:11:06;1.58;;;0.50;;
7051;SDS011;3567;52.444;13.556;2023-08-31T15:13:32;0.73;;;0.50;;
7051;SDS011;3567;52.444;13.556;2023-08-31T15:15:57;0.55;;;0.50;;
7051;SDS011;3567;52.444;13.556;2023-08-31T15:18:26;0.40;;;0.40;;
7051;SDS011;3567;52.444;13.556;2023-08-31T15:20:52;0.40;;;0.40;;